sensor_id;sensor_type;location;lat;lon;timestamp;P1;durP1;ratioP1;P2;durP2;ratioP2
53525;SDS011;40551;50.478;19.378;2023-09-19T00:01:09;18.70;;;14.60;;
53525;SDS011;40551;50.478;19.378;2023-09-19T00:03:41;16.70;;;14.40;;
53525;SDS011;40551;50.478;19.378;2023-09-19T00:06:13;20.30;;;14.20;;
53525;SDS011;40551;50.478;19.378;2023-09-19T00:08:45;18.70;;;15.20;;
53525;SDS011;40551;50.478;19.378;2023-09-19T00:11:17;14.70;;;13.30;;
53525;SDS011;40551;50.478;19.378;2023-09-19T00:13:49;15.80;;;13.70;;
53525;SDS011;40551;50.478;19.378;2023-09-19T00:16:20;16.70;;;14.30;;
53525;SDS011;40551;50.478;19.378;2023-09-19T00:18:52;17.90;;;14.00;;
53525;SDS011;40551;50.478;19.378;2023-09-19T00:21:24;17.20;;;14.00;;
53525;SDS011;40551;50.478;19.378;2023-09-19T00:23:56;16.60;;;14.60;;
53525;SDS011;40551;50.478;19.378;2023-09-19T00:26:27;15.60;;;14.00;;
53525;SDS011;40551;50.478;19.378;2023-09-19T00:29:01;15.10;;;13.40;;
53525;SDS011;40551;50.478;19.378;2023-09-19T00:31:33;15.00;;;13.40;;
53525;SDS011;40551;50.478;19.378;2023-09-19T00:34:06;15.60;;;13.90;;
53525;SDS011;40551;50.478;19.378;2023-09-19T00:36:39;15.60;;;13.90;;
53525;SDS011;40551;50.478;19.378;2023-09-19T00:39:12;17.50;;;14.00;;
53525;SDS011;40551;50.478;19.378;2023-09-19T00:41:45;15.30;;;13.70;;
53525;SDS011;40551;50.478;19.378;2023-09-19T00:44:18;15.80;;;14.00;;
53525;SDS011;40551;50.478;19.378;2023-09-19T00:46:52;14.70;;;13.20;;
53525;SDS011;40551;50.478;19.378;2023-09-19T00:49:24;14.90;;;13.40;;
53525;SDS011;40551;50.478;19.378;2023-09-19T00:51:56;16.70;;;14.30;;
53525;SDS011;40551;50.478;19.378;2023-09-19T00:54:28;16.00;;;14.30;;
53525;SDS011;40551;50.478;19.378;2023-09-19T00:57:03;16.50;;;14.60;;
53525;SDS011;40551;50.478;19.378;2023-09-19T00:59:36;16.80;;;14.20;;
53525;SDS011;40551;50.478;19.378;2023-09-19T01:02:09;18.10;;;13.90;;
53525;SDS011;40551;50.478;19.378;2023-09-19T01:04:43;16.10;;;14.40;;
53525;SDS011;40551;50.478;19.378;2023-09-19T01:07:16;16.20;;;13.50;;
53525;SDS011;40551;50.478;19.378;2023-09-19T01:09:49;15.40;;;14.00;;
53525;SDS011;40551;50.478;19.378;2023-09-19T01:12:22;16.90;;;14.00;;
53525;SDS011;40551;50.478;19.378;2023-09-19T01:15:03;16.10;;;14.50;;
53525;SDS011;40551;50.478;19.378;2023-09-19T01:17:43;16.90;;;14.00;;
53525;SDS011;40551;50.478;19.378;2023-09-19T01:20:25;15.90;;;14.30;;
53525;SDS011;40551;50.478;19.378;2023-09-19T01:23:05;15.60;;;14.00;;
53525;SDS011;40551;50.478;19.378;2023-09-19T01:28:53;15.90;;;14.40;;
53525;SDS011;40551;50.478;19.378;2023-09-19T01:31:31;15.60;;;13.70;;
53525;SDS011;40551;50.478;19.378;2023-09-19T01:34:08;15.30;;;13.80;;
53525;SDS011;40551;50.478;19.378;2023-09-19T01:36:40;15.50;;;13.70;;
53525;SDS011;40551;50.478;19.378;2023-09-19T01:39:14;15.70;;;14.20;;
53525;SDS011;40551;50.478;19.378;2023-09-19T01:41:51;15.40;;;13.90;;
53525;SDS011;40551;50.478;19.378;2023-09-19T01:44:31;15.50;;;14.00;;
53525;SDS011;40551;50.478;19.378;2023-09-19T01:47:13;15.30;;;13.70;;
53525;SDS011;40551;50.478;19.378;2023-09-19T01:52:26;16.70;;;13.10;;
53525;SDS011;40551;50.478;19.378;2023-09-19T01:55:05;15.20;;;13.60;;
53525;SDS011;40551;50.478;19.378;2023-09-19T01:57:40;16.40;;;14.20;;
53525;SDS011;40551;50.478;19.378;2023-09-19T02:00:18;15.60;;;13.90;;
53525;SDS011;40551;50.478;19.378;2023-09-19T02:02:54;14.00;;;12.60;;
53525;SDS011;40551;50.478;19.378;2023-09-19T02:05:28;16.20;;;14.60;;
53525;SDS011;40551;50.478;19.378;2023-09-19T02:08:02;15.90;;;14.30;;
53525;SDS011;40551;50.478;19.378;2023-09-19T02:10:35;14.50;;;13.00;;
53525;SDS011;40551;50.478;19.378;2023-09-19T02:13:07;15.40;;;13.90;;
53525;SDS011;40551;50.478;19.378;2023-09-19T02:15:39;14.20;;;12.80;;
53525;SDS011;40551;50.478;19.378;2023-09-19T02:18:13;15.30;;;13.70;;
53525;SDS011;40551;50.478;19.378;2023-09-19T02:20:45;16.00;;;14.40;;
53525;SDS011;40551;50.478;19.378;2023-09-19T02:23:16;20.30;;;14.50;;
53525;SDS011;40551;50.478;19.378;2023-09-19T02:25:52;15.70;;;14.10;;
53525;SDS011;40551;50.478;19.378;2023-09-19T02:28:26;16.90;;;13.50;;
53525;SDS011;40551;50.478;19.378;2023-09-19T02:30:59;15.10;;;13.70;;
53525;SDS011;40551;50.478;19.378;2023-09-19T02:33:31;15.20;;;13.70;;
53525;SDS011;40551;50.478;19.378;2023-09-19T02:36:03;15.20;;;13.50;;
53525;SDS011;40551;50.478;19.378;2023-09-19T02:38:35;15.70;;;14.20;;
53525;SDS011;40551;50.478;19.378;2023-09-19T02:41:06;15.60;;;14.00;;
53525;SDS011;40551;50.478;19.378;2023-09-19T02:43:39;15.70;;;14.20;;
53525;SDS011;40551;50.478;19.378;2023-09-19T02:46:12;15.20;;;13.60;;
53525;SDS011;40551;50.478;19.378;2023-09-19T02:48:46;16.00;;;14.60;;
53525;SDS011;40551;50.478;19.378;2023-09-19T02:51:18;14.90;;;13.50;;
53525;SDS011;40551;50.478;19.378;2023-09-19T02:53:50;15.30;;;13.80;;
53525;SDS011;40551;50.478;19.378;2023-09-19T02:56:22;15.90;;;13.80;;
53525;SDS011;40551;50.478;19.378;2023-09-19T02:58:54;38.30;;;14.40;;
53525;SDS011;40551;50.478;19.378;2023-09-19T03:01:26;21.70;;;14.80;;
53525;SDS011;40551;50.478;19.378;2023-09-19T03:03:58;19.10;;;14.60;;
53525;SDS011;40551;50.478;19.378;2023-09-19T03:06:31;21.80;;;15.00;;
53525;SDS011;40551;50.478;19.378;2023-09-19T03:09:03;25.10;;;15.10;;
53525;SDS011;40551;50.478;19.378;2023-09-19T03:11:42;25.80;;;16.70;;
53525;SDS011;40551;50.478;19.378;2023-09-19T03:14:15;21.00;;;15.30;;
53525;SDS011;40551;50.478;19.378;2023-09-19T03:16:49;20.60;;;15.30;;
53525;SDS011;40551;50.478;19.378;2023-09-19T03:19:22;19.40;;;15.60;;
53525;SDS011;40551;50.478;19.378;2023-09-19T03:21:55;20.20;;;14.90;;
53525;SDS011;40551;50.478;19.378;2023-09-19T03:24:27;17.50;;;15.60;;
53525;SDS011;40551;50.478;19.378;2023-09-19T03:27:01;16.80;;;14.80;;
53525;SDS011;40551;50.478;19.378;2023-09-19T03:29:34;16.70;;;15.10;;
53525;SDS011;40551;50.478;19.378;2023-09-19T03:32:06;20.50;;;14.40;;
53525;SDS011;40551;50.478;19.378;2023-09-19T03:34:38;18.10;;;15.50;;
53525;SDS011;40551;50.478;19.378;2023-09-19T03:37:12;16.90;;;15.10;;
53525;SDS011;40551;50.478;19.378;2023-09-19T03:39:44;17.80;;;15.90;;
53525;SDS011;40551;50.478;19.378;2023-09-19T03:42:17;20.10;;;16.70;;
53525;SDS011;40551;50.478;19.378;2023-09-19T03:44:54;17.30;;;15.60;;
53525;SDS011;40551;50.478;19.378;2023-09-19T03:47:26;20.20;;;16.40;;
53525;SDS011;40551;50.478;19.378;2023-09-19T03:49:58;17.70;;;15.40;;
53525;SDS011;40551;50.478;19.378;2023-09-19T03:52:30;16.30;;;14.60;;
53525;SDS011;40551;50.478;19.378;2023-09-19T03:55:02;16.50;;;14.90;;
53525;SDS011;40551;50.478;19.378;2023-09-19T03:57:34;16.90;;;15.20;;
53525;SDS011;40551;50.478;19.378;2023-09-19T04:00:07;16.60;;;15.00;;
53525;SDS011;40551;50.478;19.378;2023-09-19T04:02:41;16.40;;;14.80;;
53525;SDS011;40551;50.478;19.378;2023-09-19T04:05:15;16.40;;;14.80;;
53525;SDS011;40551;50.478;19.378;2023-09-19T04:07:47;17.50;;;15.30;;
53525;SDS011;40551;50.478;19.378;2023-09-19T04:10:19;17.60;;;15.90;;
53525;SDS011;40551;50.478;19.378;2023-09-19T04:12:51;18.20;;;16.40;;
53525;SDS011;40551;50.478;19.378;2023-09-19T04:15:24;17.70;;;15.90;;
53525;SDS011;40551;50.478;19.378;2023-09-19T04:17:56;16.50;;;14.90;;
53525;SDS011;40551;50.478;19.378;2023-09-19T04:20:28;16.70;;;14.80;;
53525;SDS011;40551;50.478;19.378;2023-09-19T04:23:01;17.80;;;14.40;;
53525;SDS011;40551;50.478;19.378;2023-09-19T04:25:34;18.00;;;16.30;;
53525;SDS011;40551;50.478;19.378;2023-09-19T04:28:06;18.80;;;17.10;;
53525;SDS011;40551;50.478;19.378;2023-09-19T04:30:39;17.40;;;15.80;;
53525;SDS011;40551;50.478;19.378;2023-09-19T04:33:11;17.10;;;15.00;;
53525;SDS011;40551;50.478;19.378;2023-09-19T04:35:43;17.60;;;16.00;;
53525;SDS011;40551;50.478;19.378;2023-09-19T04:38:15;18.40;;;15.70;;
53525;SDS011;40551;50.478;19.378;2023-09-19T04:40:46;19.00;;;16.20;;
53525;SDS011;40551;50.478;19.378;2023-09-19T04:43:18;18.50;;;16.90;;
53525;SDS011;40551;50.478;19.378;2023-09-19T04:45:50;18.30;;;16.40;;
53525;SDS011;40551;50.478;19.378;2023-09-19T04:48:24;18.50;;;16.80;;
53525;SDS011;40551;50.478;19.378;2023-09-19T04:50:58;19.50;;;17.80;;
53525;SDS011;40551;50.478;19.378;2023-09-19T04:53:30;19.50;;;17.80;;
53525;SDS011;40551;50.478;19.378;2023-09-19T04:56:02;19.70;;;17.60;;
53525;SDS011;40551;50.478;19.378;2023-09-19T04:58:36;19.70;;;17.70;;
53525;SDS011;40551;50.478;19.378;2023-09-19T05:01:08;20.90;;;18.80;;
53525;SDS011;40551;50.478;19.378;2023-09-19T05:03:41;20.00;;;18.00;;
53525;SDS011;40551;50.478;19.378;2023-09-19T05:06:14;20.30;;;18.30;;
53525;SDS011;40551;50.478;19.378;2023-09-19T05:08:45;20.20;;;18.40;;
53525;SDS011;40551;50.478;19.378;2023-09-19T05:11:19;19.70;;;17.80;;
53525;SDS011;40551;50.478;19.378;2023-09-19T05:13:51;21.60;;;19.70;;
53525;SDS011;40551;50.478;19.378;2023-09-19T05:16:23;19.90;;;17.90;;
53525;SDS011;40551;50.478;19.378;2023-09-19T05:18:55;20.50;;;18.50;;
53525;SDS011;40551;50.478;19.378;2023-09-19T05:21:27;18.80;;;16.90;;
53525;SDS011;40551;50.478;19.378;2023-09-19T05:24:00;18.80;;;17.20;;
53525;SDS011;40551;50.478;19.378;2023-09-19T05:26:32;19.40;;;17.60;;
53525;SDS011;40551;50.478;19.378;2023-09-19T05:29:03;18.70;;;16.90;;
53525;SDS011;40551;50.478;19.378;2023-09-19T05:31:37;18.60;;;16.90;;
53525;SDS011;40551;50.478;19.378;2023-09-19T05:34:10;18.60;;;16.70;;
53525;SDS011;40551;50.478;19.378;2023-09-19T05:36:42;17.90;;;16.30;;
53525;SDS011;40551;50.478;19.378;2023-09-19T05:39:14;18.00;;;16.20;;
53525;SDS011;40551;50.478;19.378;2023-09-19T05:41:46;16.60;;;15.10;;
53525;SDS011;40551;50.478;19.378;2023-09-19T05:44:18;18.30;;;16.50;;
53525;SDS011;40551;50.478;19.378;2023-09-19T05:46:49;17.50;;;15.70;;
53525;SDS011;40551;50.478;19.378;2023-09-19T05:49:22;21.10;;;19.00;;
53525;SDS011;40551;50.478;19.378;2023-09-19T05:51:54;20.10;;;18.10;;
53525;SDS011;40551;50.478;19.378;2023-09-19T05:54:28;26.70;;;18.10;;
53525;SDS011;40551;50.478;19.378;2023-09-19T05:56:59;22.10;;;19.80;;
53525;SDS011;40551;50.478;19.378;2023-09-19T05:59:31;20.20;;;18.10;;
53525;SDS011;40551;50.478;19.378;2023-09-19T06:02:03;20.00;;;18.00;;
53525;SDS011;40551;50.478;19.378;2023-09-19T06:04:35;20.40;;;18.20;;
53525;SDS011;40551;50.478;19.378;2023-09-19T06:07:09;23.50;;;21.00;;
53525;SDS011;40551;50.478;19.378;2023-09-19T06:09:41;29.10;;;26.30;;
53525;SDS011;40551;50.478;19.378;2023-09-19T06:12:13;24.50;;;22.30;;
53525;SDS011;40551;50.478;19.378;2023-09-19T06:14:46;23.60;;;19.90;;
53525;SDS011;40551;50.478;19.378;2023-09-19T06:17:18;22.50;;;20.00;;
53525;SDS011;40551;50.478;19.378;2023-09-19T06:19:51;22.60;;;20.20;;
53525;SDS011;40551;50.478;19.378;2023-09-19T06:22:25;20.30;;;18.40;;
53525;SDS011;40551;50.478;19.378;2023-09-19T06:24:57;20.70;;;18.70;;
53525;SDS011;40551;50.478;19.378;2023-09-19T06:27:29;24.60;;;18.80;;
53525;SDS011;40551;50.478;19.378;2023-09-19T06:30:00;19.10;;;17.30;;
53525;SDS011;40551;50.478;19.378;2023-09-19T06:32:32;22.90;;;20.40;;
53525;SDS011;40551;50.478;19.378;2023-09-19T06:35:05;22.80;;;20.50;;
53525;SDS011;40551;50.478;19.378;2023-09-19T06:37:40;22.70;;;20.60;;
53525;SDS011;40551;50.478;19.378;2023-09-19T06:40:13;26.90;;;24.20;;
53525;SDS011;40551;50.478;19.378;2023-09-19T06:42:47;28.10;;;25.50;;
53525;SDS011;40551;50.478;19.378;2023-09-19T06:45:20;28.00;;;25.50;;
53525;SDS011;40551;50.478;19.378;2023-09-19T06:47:52;25.70;;;23.50;;
53525;SDS011;40551;50.478;19.378;2023-09-19T06:50:27;28.70;;;26.00;;
53525;SDS011;40551;50.478;19.378;2023-09-19T06:53:02;28.40;;;25.80;;
53525;SDS011;40551;50.478;19.378;2023-09-19T06:55:34;28.50;;;25.70;;
53525;SDS011;40551;50.478;19.378;2023-09-19T06:58:06;28.90;;;25.90;;
53525;SDS011;40551;50.478;19.378;2023-09-19T07:00:37;30.60;;;27.30;;
53525;SDS011;40551;50.478;19.378;2023-09-19T07:03:09;27.20;;;24.80;;
53525;SDS011;40551;50.478;19.378;2023-09-19T07:05:46;28.90;;;25.90;;
53525;SDS011;40551;50.478;19.378;2023-09-19T07:08:21;27.70;;;25.10;;
53525;SDS011;40551;50.478;19.378;2023-09-19T07:10:53;26.60;;;24.10;;
53525;SDS011;40551;50.478;19.378;2023-09-19T07:13:26;26.90;;;24.50;;
53525;SDS011;40551;50.478;19.378;2023-09-19T07:15:58;27.10;;;24.60;;
53525;SDS011;40551;50.478;19.378;2023-09-19T07:18:30;27.20;;;24.60;;
53525;SDS011;40551;50.478;19.378;2023-09-19T07:21:02;27.40;;;24.90;;
53525;SDS011;40551;50.478;19.378;2023-09-19T07:23:34;27.10;;;24.60;;
53525;SDS011;40551;50.478;19.378;2023-09-19T07:26:07;26.40;;;24.00;;
53525;SDS011;40551;50.478;19.378;2023-09-19T07:28:41;24.40;;;22.10;;
53525;SDS011;40551;50.478;19.378;2023-09-19T07:31:13;26.10;;;23.50;;
53525;SDS011;40551;50.478;19.378;2023-09-19T07:33:46;26.50;;;24.20;;
53525;SDS011;40551;50.478;19.378;2023-09-19T07:36:17;24.80;;;22.60;;
53525;SDS011;40551;50.478;19.378;2023-09-19T07:38:49;24.80;;;22.40;;
53525;SDS011;40551;50.478;19.378;2023-09-19T07:41:21;24.60;;;22.20;;
53525;SDS011;40551;50.478;19.378;2023-09-19T07:43:53;23.10;;;20.80;;
53525;SDS011;40551;50.478;19.378;2023-09-19T07:46:25;24.70;;;22.30;;
53525;SDS011;40551;50.478;19.378;2023-09-19T07:48:57;22.10;;;19.90;;
53525;SDS011;40551;50.478;19.378;2023-09-19T07:51:29;22.80;;;20.50;;
53525;SDS011;40551;50.478;19.378;2023-09-19T07:54:02;21.90;;;19.80;;
53525;SDS011;40551;50.478;19.378;2023-09-19T07:56:34;22.70;;;20.40;;
53525;SDS011;40551;50.478;19.378;2023-09-19T07:59:06;22.60;;;20.30;;
53525;SDS011;40551;50.478;19.378;2023-09-19T08:01:39;21.30;;;19.20;;
53525;SDS011;40551;50.478;19.378;2023-09-19T08:04:12;21.10;;;19.10;;
53525;SDS011;40551;50.478;19.378;2023-09-19T08:06:44;20.40;;;18.20;;
53525;SDS011;40551;50.478;19.378;2023-09-19T08:09:16;20.40;;;18.20;;
53525;SDS011;40551;50.478;19.378;2023-09-19T08:11:53;21.30;;;18.20;;
53525;SDS011;40551;50.478;19.378;2023-09-19T08:14:26;20.40;;;18.50;;
53525;SDS011;40551;50.478;19.378;2023-09-19T08:16:58;20.60;;;18.50;;
53525;SDS011;40551;50.478;19.378;2023-09-19T08:19:30;19.70;;;17.90;;
53525;SDS011;40551;50.478;19.378;2023-09-19T08:22:02;19.90;;;18.00;;
53525;SDS011;40551;50.478;19.378;2023-09-19T08:24:34;19.10;;;17.10;;
53525;SDS011;40551;50.478;19.378;2023-09-19T08:27:06;18.10;;;16.50;;
53525;SDS011;40551;50.478;19.378;2023-09-19T08:29:39;17.90;;;16.10;;
53525;SDS011;40551;50.478;19.378;2023-09-19T08:32:11;17.80;;;16.10;;
53525;SDS011;40551;50.478;19.378;2023-09-19T08:34:43;17.70;;;15.90;;
53525;SDS011;40551;50.478;19.378;2023-09-19T08:37:15;17.90;;;15.70;;
53525;SDS011;40551;50.478;19.378;2023-09-19T08:39:48;17.90;;;16.00;;
53525;SDS011;40551;50.478;19.378;2023-09-19T08:42:20;18.80;;;16.00;;
53525;SDS011;40551;50.478;19.378;2023-09-19T08:44:54;17.20;;;15.50;;
53525;SDS011;40551;50.478;19.378;2023-09-19T08:47:31;19.00;;;15.50;;
53525;SDS011;40551;50.478;19.378;2023-09-19T08:50:09;17.80;;;13.90;;
53525;SDS011;40551;50.478;19.378;2023-09-19T08:52:47;16.10;;;14.40;;
53525;SDS011;40551;50.478;19.378;2023-09-19T08:55:26;15.30;;;13.70;;
53525;SDS011;40551;50.478;19.378;2023-09-19T08:58:00;16.70;;;13.00;;
53525;SDS011;40551;50.478;19.378;2023-09-19T09:00:33;16.10;;;12.70;;
53525;SDS011;40551;50.478;19.378;2023-09-19T09:03:06;14.00;;;12.40;;
53525;SDS011;40551;50.478;19.378;2023-09-19T09:05:42;14.10;;;12.40;;
53525;SDS011;40551;50.478;19.378;2023-09-19T09:08:15;13.30;;;10.60;;
53525;SDS011;40551;50.478;19.378;2023-09-19T09:10:47;12.70;;;9.90;;
53525;SDS011;40551;50.478;19.378;2023-09-19T09:13:19;13.10;;;9.00;;
53525;SDS011;40551;50.478;19.378;2023-09-19T09:15:53;11.50;;;9.10;;
53525;SDS011;40551;50.478;19.378;2023-09-19T09:18:25;11.70;;;8.50;;
53525;SDS011;40551;50.478;19.378;2023-09-19T09:20:58;14.90;;;8.20;;
53525;SDS011;40551;50.478;19.378;2023-09-19T09:23:30;12.90;;;8.20;;
53525;SDS011;40551;50.478;19.378;2023-09-19T09:26:02;11.50;;;8.50;;
53525;SDS011;40551;50.478;19.378;2023-09-19T09:28:36;12.60;;;8.30;;
53525;SDS011;40551;50.478;19.378;2023-09-19T09:31:26;10.40;;;8.00;;
53525;SDS011;40551;50.478;19.378;2023-09-19T09:33:57;10.40;;;7.70;;
53525;SDS011;40551;50.478;19.378;2023-09-19T09:36:36;10.00;;;8.00;;
53525;SDS011;40551;50.478;19.378;2023-09-19T09:39:11;10.10;;;8.00;;
53525;SDS011;40551;50.478;19.378;2023-09-19T09:41:47;10.70;;;7.80;;
53525;SDS011;40551;50.478;19.378;2023-09-19T09:44:19;11.70;;;7.90;;
53525;SDS011;40551;50.478;19.378;2023-09-19T09:46:50;14.60;;;8.20;;
53525;SDS011;40551;50.478;19.378;2023-09-19T09:49:49;9.90;;;8.00;;
53525;SDS011;40551;50.478;19.378;2023-09-19T09:52:45;13.00;;;7.40;;
53525;SDS011;40551;50.478;19.378;2023-09-19T09:55:19;8.20;;;7.20;;
53525;SDS011;40551;50.478;19.378;2023-09-19T09:57:52;11.60;;;7.00;;
53525;SDS011;40551;50.478;19.378;2023-09-19T10:00:53;10.40;;;7.10;;
53525;SDS011;40551;50.478;19.378;2023-09-19T10:03:33;21.70;;;8.20;;
53525;SDS011;40551;50.478;19.378;2023-09-19T10:06:10;9.70;;;6.80;;
53525;SDS011;40551;50.478;19.378;2023-09-19T10:09:00;13.20;;;7.20;;
53525;SDS011;40551;50.478;19.378;2023-09-19T10:11:41;11.50;;;7.90;;
53525;SDS011;40551;50.478;19.378;2023-09-19T10:14:15;10.10;;;7.50;;
53525;SDS011;40551;50.478;19.378;2023-09-19T10:16:49;10.70;;;7.50;;
53525;SDS011;40551;50.478;19.378;2023-09-19T10:19:30;9.90;;;7.50;;
53525;SDS011;40551;50.478;19.378;2023-09-19T10:22:06;10.20;;;7.20;;
53525;SDS011;40551;50.478;19.378;2023-09-19T10:24:39;12.00;;;7.50;;
53525;SDS011;40551;50.478;19.378;2023-09-19T10:27:29;13.10;;;7.70;;
53525;SDS011;40551;50.478;19.378;2023-09-19T10:30:07;11.40;;;7.30;;
53525;SDS011;40551;50.478;19.378;2023-09-19T10:32:40;13.60;;;8.10;;
53525;SDS011;40551;50.478;19.378;2023-09-19T10:35:16;18.40;;;10.90;;
53525;SDS011;40551;50.478;19.378;2023-09-19T10:37:57;24.80;;;16.20;;
53525;SDS011;40551;50.478;19.378;2023-09-19T10:40:29;14.70;;;9.80;;
53525;SDS011;40551;50.478;19.378;2023-09-19T10:45:55;15.40;;;8.40;;
53525;SDS011;40551;50.478;19.378;2023-09-19T10:48:33;13.00;;;7.90;;
53525;SDS011;40551;50.478;19.378;2023-09-19T10:51:06;13.90;;;7.30;;
53525;SDS011;40551;50.478;19.378;2023-09-19T10:53:42;14.20;;;7.80;;
53525;SDS011;40551;50.478;19.378;2023-09-19T10:56:21;10.00;;;6.20;;
53525;SDS011;40551;50.478;19.378;2023-09-19T10:58:53;9.50;;;6.00;;
53525;SDS011;40551;50.478;19.378;2023-09-19T11:01:43;9.70;;;5.60;;
53525;SDS011;40551;50.478;19.378;2023-09-19T11:04:27;9.30;;;6.10;;
53525;SDS011;40551;50.478;19.378;2023-09-19T11:07:00;9.10;;;5.80;;
53525;SDS011;40551;50.478;19.378;2023-09-19T11:09:49;10.30;;;5.80;;
53525;SDS011;40551;50.478;19.378;2023-09-19T11:24:30;9.10;;;4.80;;
53525;SDS011;40551;50.478;19.378;2023-09-19T11:27:15;9.60;;;5.00;;
53525;SDS011;40551;50.478;19.378;2023-09-19T11:29:47;13.20;;;5.10;;
53525;SDS011;40551;50.478;19.378;2023-09-19T11:41:43;9.20;;;4.50;;
53525;SDS011;40551;50.478;19.378;2023-09-19T11:44:34;12.70;;;4.50;;
53525;SDS011;40551;50.478;19.378;2023-09-19T11:47:07;12.00;;;3.90;;
53525;SDS011;40551;50.478;19.378;2023-09-19T11:49:41;7.70;;;3.60;;
53525;SDS011;40551;50.478;19.378;2023-09-19T11:52:18;11.30;;;3.70;;
53525;SDS011;40551;50.478;19.378;2023-09-19T11:54:55;9.10;;;4.00;;
53525;SDS011;40551;50.478;19.378;2023-09-19T11:57:27;11.20;;;3.80;;
53525;SDS011;40551;50.478;19.378;2023-09-19T12:00:01;8.80;;;4.10;;
53525;SDS011;40551;50.478;19.378;2023-09-19T12:02:40;10.40;;;4.20;;
53525;SDS011;40551;50.478;19.378;2023-09-19T12:05:16;8.80;;;3.70;;
53525;SDS011;40551;50.478;19.378;2023-09-19T12:07:57;11.60;;;3.90;;
53525;SDS011;40551;50.478;19.378;2023-09-19T12:10:30;6.20;;;3.10;;
53525;SDS011;40551;50.478;19.378;2023-09-19T12:13:04;8.40;;;4.10;;
53525;SDS011;40551;50.478;19.378;2023-09-19T12:15:38;8.10;;;3.80;;
53525;SDS011;40551;50.478;19.378;2023-09-19T12:18:29;9.30;;;3.70;;
53525;SDS011;40551;50.478;19.378;2023-09-19T12:21:04;10.60;;;3.80;;
53525;SDS011;40551;50.478;19.378;2023-09-19T12:23:41;8.80;;;4.10;;
53525;SDS011;40551;50.478;19.378;2023-09-19T12:26:13;9.70;;;4.50;;
53525;SDS011;40551;50.478;19.378;2023-09-19T12:28:45;13.10;;;4.10;;
53525;SDS011;40551;50.478;19.378;2023-09-19T12:31:18;9.00;;;4.20;;
53525;SDS011;40551;50.478;19.378;2023-09-19T12:33:54;10.60;;;4.30;;
53525;SDS011;40551;50.478;19.378;2023-09-19T12:36:26;10.20;;;4.40;;
53525;SDS011;40551;50.478;19.378;2023-09-19T12:38:59;8.90;;;4.30;;
53525;SDS011;40551;50.478;19.378;2023-09-19T12:41:38;8.40;;;4.40;;
53525;SDS011;40551;50.478;19.378;2023-09-19T12:44:11;8.40;;;4.50;;
53525;SDS011;40551;50.478;19.378;2023-09-19T12:46:48;10.20;;;4.80;;
53525;SDS011;40551;50.478;19.378;2023-09-19T12:49:26;10.20;;;5.40;;
53525;SDS011;40551;50.478;19.378;2023-09-19T12:52:01;10.10;;;4.60;;
53525;SDS011;40551;50.478;19.378;2023-09-19T12:54:40;13.10;;;4.80;;
53525;SDS011;40551;50.478;19.378;2023-09-19T12:57:25;7.90;;;3.90;;
53525;SDS011;40551;50.478;19.378;2023-09-19T12:59:58;7.50;;;4.60;;
53525;SDS011;40551;50.478;19.378;2023-09-19T13:02:32;7.60;;;5.00;;
53525;SDS011;40551;50.478;19.378;2023-09-19T13:05:05;6.90;;;4.30;;
53525;SDS011;40551;50.478;19.378;2023-09-19T13:07:42;8.50;;;5.00;;
53525;SDS011;40551;50.478;19.378;2023-09-19T13:10:20;9.60;;;5.60;;
53525;SDS011;40551;50.478;19.378;2023-09-19T13:12:54;10.30;;;5.00;;
53525;SDS011;40551;50.478;19.378;2023-09-19T13:15:52;8.60;;;4.50;;
53525;SDS011;40551;50.478;19.378;2023-09-19T13:18:27;10.80;;;4.60;;
53525;SDS011;40551;50.478;19.378;2023-09-19T13:21:08;11.70;;;5.10;;
53525;SDS011;40551;50.478;19.378;2023-09-19T13:26:31;10.40;;;4.80;;
53525;SDS011;40551;50.478;19.378;2023-09-19T13:29:06;10.20;;;4.80;;
53525;SDS011;40551;50.478;19.378;2023-09-19T13:31:38;8.10;;;4.70;;
53525;SDS011;40551;50.478;19.378;2023-09-19T13:34:10;9.40;;;4.70;;
53525;SDS011;40551;50.478;19.378;2023-09-19T13:36:44;11.40;;;5.30;;
53525;SDS011;40551;50.478;19.378;2023-09-19T13:39:17;8.90;;;4.90;;
53525;SDS011;40551;50.478;19.378;2023-09-19T13:41:49;9.40;;;4.70;;
53525;SDS011;40551;50.478;19.378;2023-09-19T13:44:21;7.40;;;4.80;;
53525;SDS011;40551;50.478;19.378;2023-09-19T13:46:53;16.40;;;4.60;;
53525;SDS011;40551;50.478;19.378;2023-09-19T13:49:26;9.10;;;4.60;;
53525;SDS011;40551;50.478;19.378;2023-09-19T13:51:57;10.30;;;4.40;;
53525;SDS011;40551;50.478;19.378;2023-09-19T13:54:30;7.90;;;4.50;;
53525;SDS011;40551;50.478;19.378;2023-09-19T13:57:02;9.60;;;4.70;;
53525;SDS011;40551;50.478;19.378;2023-09-19T13:59:37;9.70;;;4.80;;
53525;SDS011;40551;50.478;19.378;2023-09-19T14:02:09;10.10;;;5.20;;
53525;SDS011;40551;50.478;19.378;2023-09-19T14:04:43;9.10;;;4.40;;
53525;SDS011;40551;50.478;19.378;2023-09-19T14:07:14;11.70;;;4.50;;
53525;SDS011;40551;50.478;19.378;2023-09-19T14:09:48;8.80;;;4.30;;
53525;SDS011;40551;50.478;19.378;2023-09-19T14:12:21;9.80;;;4.50;;
53525;SDS011;40551;50.478;19.378;2023-09-19T14:14:53;7.10;;;4.00;;
53525;SDS011;40551;50.478;19.378;2023-09-19T14:17:25;14.50;;;5.40;;
53525;SDS011;40551;50.478;19.378;2023-09-19T14:19:57;7.40;;;4.00;;
53525;SDS011;40551;50.478;19.378;2023-09-19T14:22:29;8.50;;;4.20;;
53525;SDS011;40551;50.478;19.378;2023-09-19T14:25:02;9.00;;;4.10;;
53525;SDS011;40551;50.478;19.378;2023-09-19T14:27:35;10.80;;;4.10;;
53525;SDS011;40551;50.478;19.378;2023-09-19T14:30:07;8.70;;;3.90;;
53525;SDS011;40551;50.478;19.378;2023-09-19T14:32:40;8.60;;;4.50;;
53525;SDS011;40551;50.478;19.378;2023-09-19T14:35:12;12.20;;;4.10;;
53525;SDS011;40551;50.478;19.378;2023-09-19T14:37:45;7.10;;;3.70;;
53525;SDS011;40551;50.478;19.378;2023-09-19T14:40:17;9.70;;;4.00;;
53525;SDS011;40551;50.478;19.378;2023-09-19T14:42:49;11.00;;;4.00;;
53525;SDS011;40551;50.478;19.378;2023-09-19T14:45:21;9.40;;;4.40;;
53525;SDS011;40551;50.478;19.378;2023-09-19T14:47:55;7.80;;;3.90;;
53525;SDS011;40551;50.478;19.378;2023-09-19T14:50:27;8.80;;;3.90;;
53525;SDS011;40551;50.478;19.378;2023-09-19T14:52:59;7.80;;;3.90;;
53525;SDS011;40551;50.478;19.378;2023-09-19T14:55:31;8.00;;;3.80;;
53525;SDS011;40551;50.478;19.378;2023-09-19T14:58:06;9.80;;;4.00;;
53525;SDS011;40551;50.478;19.378;2023-09-19T15:00:38;7.50;;;3.40;;
53525;SDS011;40551;50.478;19.378;2023-09-19T15:03:10;11.30;;;4.40;;
53525;SDS011;40551;50.478;19.378;2023-09-19T15:05:43;10.10;;;3.90;;
53525;SDS011;40551;50.478;19.378;2023-09-19T15:08:14;9.60;;;4.00;;
53525;SDS011;40551;50.478;19.378;2023-09-19T15:10:50;8.40;;;4.00;;
53525;SDS011;40551;50.478;19.378;2023-09-19T15:13:22;11.20;;;4.00;;
53525;SDS011;40551;50.478;19.378;2023-09-19T15:15:59;10.70;;;4.50;;
53525;SDS011;40551;50.478;19.378;2023-09-19T15:18:32;7.90;;;3.50;;
53525;SDS011;40551;50.478;19.378;2023-09-19T15:21:07;8.50;;;3.90;;
53525;SDS011;40551;50.478;19.378;2023-09-19T15:23:41;8.20;;;4.00;;
53525;SDS011;40551;50.478;19.378;2023-09-19T15:26:15;11.00;;;4.00;;
53525;SDS011;40551;50.478;19.378;2023-09-19T15:28:50;9.10;;;3.80;;